Boogertown, North Carolina
Current Conditions -  °F | °C
As of 1:54 AM on Sunday 26 Oct 2014 (Local Time) from KAKH Reporting Station
Clear Clear  
Wind Chill: 50°   Ceiling: Unl
Heat Index: 50°   Visibility: 10mi
Dew Point: 45°   Wind: 3mph
Humidity: 83%   Direction: 210°SSW
Pressure: 29.92"   Gusts: NA
Location:  35.2205°N, 81.2501°W
Report Text: KAKH 260554Z AUTO 21003KT 10SM CLR 10/07 A2992 RMK AO2 SLP131 T01000072 10139 20089 58006
Loading
Personal Weather Stations






























Interactive Weather Map
Tropical Storm Tracking
New forecast layout! Learn more

10-Day Weather Forecast

Advertisements
Track Severe Weather on mobile